»·PEaware :: N21056 KLAX-KHHR

N21056 :: KLAX-KHHR

FLIGHT INFORMATION

Flight Status: Arrived
Operator: Privately registered:
United States
More flights under this callsign
Pilot: Erik K. (18332)
Aircraft: PILATUS PC-12 EAGLE
(PC12)
More flights by this aircraft type
Origin: KLAX Los Angeles Intl
United States
Destination: KHHR Northrop/Hawthorne Mun
United States
More flights between these airports :: More routes between these airports
Route: +LAX V23 POM225 V16 LAHAB
File this flight plan on PilotEdge
Remarks: Practice approach LOC 25 with full published missed procedure
Altitude:
(Current/Filed)
3,000ft
Speed:
(Current/Filed)
250kts
Departed: 05-Nov-18 10:45 AM
Arrived: 05-Nov-18 11:08 AM
Distance/Time
Traveled:
4nm/0:23
Distance/Time
To Go:
Arrived

Flight Plot

Page will automatically refresh every two minutes.


Map Options




Map Legend


Flown Route
Filed Route
Departure Airport
Arrival Airport
Navaid (VOR, NDB)
Fix

Horizontal Profiles

Position Reports

Time Latitude Longitude Heading Altitude Ground
Speed
05-Nov-18 10:23 33.934212 -118.394291 178 107ft 0kts
05-Nov-18 10:24 33.934212 -118.394291 178 107ft 0kts
05-Nov-18 10:25 33.934212 -118.394291 178 107ft 0kts
05-Nov-18 10:26 33.934212 -118.394291 178 107ft 0kts
05-Nov-18 10:26 33.934212 -118.394291 178 107ft 0kts
05-Nov-18 10:27 33.934212 -118.394291 178 107ft 0kts
05-Nov-18 10:28 33.934212 -118.394291 178 107ft 0kts
05-Nov-18 10:29 33.934212 -118.394291 178 107ft 0kts
05-Nov-18 10:30 33.934212 -118.394291 178 107ft 0kts
05-Nov-18 10:32 33.934171 -118.394291 179 107ft 3kts
05-Nov-18 10:33 33.935295 -118.390975 83 105ft 20kts
05-Nov-18 10:34 33.935956 -118.384686 82 101ft 26kts
05-Nov-18 10:35 33.936147 -118.382835 11 100ft 0kts
05-Nov-18 10:36 33.936147 -118.382835 11 100ft 0kts
05-Nov-18 10:37 33.936147 -118.382835 11 100ft 0kts
05-Nov-18 10:38 33.936147 -118.382835 11 100ft 0kts
05-Nov-18 10:39 33.936147 -118.382835 11 100ft 0kts
05-Nov-18 10:40 33.936147 -118.382835 11 100ft 0kts
05-Nov-18 10:41 33.936147 -118.382835 11 100ft 0kts
05-Nov-18 10:42 33.936147 -118.382835 11 100ft 0kts
05-Nov-18 10:43 33.936147 -118.382835 11 100ft 0kts
05-Nov-18 10:44 33.936147 -118.382835 11 100ft 0kts
05-Nov-18 10:45 33.936147 -118.382835 11 100ft 0kts
05-Nov-18 10:46 33.936147 -118.382835 11 100ft 0kts
05-Nov-18 10:47 33.937154 -118.384514 266 101ft 31kts
05-Nov-18 10:48 33.925658 -118.421816 215 704ft 188kts
05-Nov-18 10:49 33.878805 -118.458891 212 1823ft 209kts
05-Nov-18 10:50 33.830835 -118.497237 212 3088ft 212kts
05-Nov-18 10:51 33.780895 -118.508451 142 4346ft 206kts
05-Nov-18 10:52 33.733330 -118.466543 141 4959ft 231kts
05-Nov-18 10:53 33.684924 -118.418080 141 5011ft 224kts
05-Nov-18 10:54 33.639144 -118.371874 141 5011ft 216kts
05-Nov-18 10:55 33.593236 -118.326543 141 5010ft 215kts
05-Nov-18 10:56 33.573274 -118.271412 46 5030ft 226kts
05-Nov-18 10:57 33.619379 -118.224034 40 5008ft 227kts
05-Nov-18 10:58 33.666694 -118.179443 40 4982ft 228kts
05-Nov-18 10:59 33.709790 -118.135229 41 4989ft 227kts
05-Nov-18 11:00 33.749883 -118.094156 40 4993ft 227kts
05-Nov-18 11:01 33.790065 -118.054703 39 5144ft 216kts
05-Nov-18 11:02 33.829117 -118.021244 16 4916ft 221kts
05-Nov-18 11:03 33.878432 -118.008123 12 4450ft 215kts
05-Nov-18 11:04 33.924519 -118.021143 293 3055ft 241kts
05-Nov-18 11:05 33.937270 -118.080783 260 2790ft 222kts
05-Nov-18 11:06 33.925618 -118.143792 259 2334ft 212kts
05-Nov-18 11:07 33.927549 -118.204354 273 1842ft 206kts
05-Nov-18 11:08 33.928016 -118.261675 266 838ft 175kts
05-Nov-18 11:09 33.924437 -118.297126 263 656ft 104kts
05-Nov-18 11:10 33.923253 -118.325777 265 122ft 91kts
05-Nov-18 11:11 33.922357 -118.334361 174 60ft 0kts
05-Nov-18 11:12 33.922247 -118.334240 59 60ft 6kts
05-Nov-18 11:13 33.921962 -118.330797 89 58ft 0kts

Navigation Log

Ident Type
Flight plan parsing failed, navigation log unavailable